Home   Weather   USA   Garland   Past weeks
Flag for USA

Past Weather in Garland, Texas, USA — Yesterday and Last 2 Weeks

Currently: 79 °F. Sunny. (Weather station: Mesquite Metro Airport, USA). See more current weather

Past Weather in Garland — Graph

°F

Garland Temperature Yesterday

Maximum temperature yesterday: 93 °F (at 2:50 pm)
Minimum temperature yesterday: 72 °F (at 6:50 am)
Average temperature yesterday: 80 °F

High & Low Weather Summary for the Past Weeks

 TemperatureHumidityPressure
High93 °F (Jul 24, 4:50 pm)100% (Jul 11, 7:15 am)30.21 "Hg (Jul 11, 7:15 am)
Low67 °F (Jul 14, 4:55 am)44% (Jul 11, 4:50 pm)29.89 "Hg (Jul 25, 6:50 pm)
Average78 °F83%30.04 "Hg
* Reported Jul 11 7:15 am — Jul 26 7:50 am, Garland. Weather by CustomWeather, © 2021

Note: Actual official high and low records may vary slightly from our data, if they occured in-between our weather recording intervals... More about our weather records

Garland Weather History for the Previous 24 Hours

Scroll right to see more
 ConditionsComfort  
Time TempWeatherWind HumidityBarometerVisibility
7:50 am
Mon, Jul 26
75 °FSunny.7 mph94%29.98 "Hg7 mi
6:50 am73 °FSunny.7 mph100%29.96 "Hg7 mi
6:35 am73 °FSunny.5 mph98%29.95 "Hg10 mi
6:15 am73 °FClear.No wind98%29.95 "Hg10 mi
5:55 am73 °FClear.7 mph97%29.95 "Hg10 mi
5:35 am74 °FClear.No wind97%29.95 "Hg10 mi
5:15 am74 °FClear.6 mph99%29.93 "Hg10 mi
4:55 am74 °FClear.5 mph98%29.93 "Hg10 mi
4:35 am74 °FClear.No wind97%29.94 "Hg10 mi
4:15 am75 °FClear.3 mph93%29.94 "Hg10 mi
3:55 am75 °FClear.No wind94%29.94 "Hg10 mi
3:35 am75 °FClear.No wind96%29.93 "Hg10 mi
3:15 am74 °FClear.3 mph96%29.93 "Hg10 mi
2:55 am74 °FClear.3 mph96%29.93 "Hg10 mi
2:35 am75 °FClear.No wind94%29.94 "Hg10 mi
1:55 am76 °FClear.No wind93%29.94 "Hg10 mi
1:35 am76 °FClear.No wind93%29.94 "Hg10 mi
12:55 am76 °FClear.3 mph93%29.95 "Hg10 mi
12:35 am77 °FClear.3 mph91%29.95 "Hg10 mi
12:15 am77 °FClear.3 mph91%29.95 "Hg10 mi
11:55 pm
Sun, Jul 25
78 °FClear.3 mph88%29.95 "Hg10 mi
11:35 pm78 °FClear.No wind91%29.95 "Hg10 mi
11:15 pm79 °FClear.3 mph88%29.95 "Hg10 mi
10:55 pm79 °FClear.3 mph89%29.94 "Hg10 mi
10:35 pm80 °FClear.3 mph85%29.94 "Hg10 mi
10:15 pm80 °FClear.3 mph82%29.93 "Hg10 mi
9:55 pm81 °FClear.3 mph82%29.92 "Hg10 mi
9:35 pm81 °FClear.3 mph83%29.92 "Hg10 mi
9:15 pm83 °FClear.3 mph74%29.91 "Hg10 mi
8:55 pm84 °FClear.5 mph68%29.91 "Hg10 mi
7:50 pm88 °FSunny.8 mph62%29.90 "Hg10 mi
6:50 pm91 °FSunny.9 mph56%29.89 "Hg10 mi
5:50 pm93 °FSunny.8 mph49%29.90 "Hg10 mi
4:50 pm93 °FSunny.N/A49%29.91 "Hg7 mi
3:50 pm93 °FSunny.7 mph47%29.94 "Hg7 mi
2:50 pm93 °FSunny.7 mph53%29.96 "Hg7 mi
1:50 pm91 °FSunny.8 mph56%29.99 "Hg7 mi
12:50 pm91 °FSunny.7 mph56%30.01 "Hg5 mi
11:50 am88 °FSunny.8 mph66%30.03 "Hg5 mi
10:50 am84 °FSunny.8 mph74%30.03 "Hg5 mi
9:50 am82 °FSunny.8 mph74%30.03 "Hg5 mi
Weather by CustomWeather, © 2021

See weather overview